sensor_id;sensor_type;location;lat;lon;timestamp;temperature;humidity
21355;DHT22;10835;50.148;19.760;2022-08-21T00:02:02;32.40;54.30
21355;DHT22;10835;50.148;19.760;2022-08-21T00:04:30;32.50;54.20
21355;DHT22;10835;50.148;19.760;2022-08-21T00:06:58;32.70;54.00
21355;DHT22;10835;50.148;19.760;2022-08-21T00:09:26;32.90;53.60
21355;DHT22;10835;50.148;19.760;2022-08-21T00:11:56;32.80;53.50
21355;DHT22;10835;50.148;19.760;2022-08-21T00:14:24;32.80;53.50
21355;DHT22;10835;50.148;19.760;2022-08-21T00:16:57;32.80;53.40
21355;DHT22;10835;50.148;19.760;2022-08-21T00:19:26;32.80;53.40
21355;DHT22;10835;50.148;19.760;2022-08-21T00:21:55;32.80;53.40
21355;DHT22;10835;50.148;19.760;2022-08-21T00:24:25;32.90;53.40
21355;DHT22;10835;50.148;19.760;2022-08-21T00:26:54;32.80;53.20
21355;DHT22;10835;50.148;19.760;2022-08-21T00:29:23;32.80;53.40
21355;DHT22;10835;50.148;19.760;2022-08-21T00:31:51;32.70;53.30
21355;DHT22;10835;50.148;19.760;2022-08-21T00:34:20;32.90;53.40
21355;DHT22;10835;50.148;19.760;2022-08-21T00:36:48;32.80;53.40
21355;DHT22;10835;50.148;19.760;2022-08-21T00:39:16;32.70;53.30
21355;DHT22;10835;50.148;19.760;2022-08-21T00:41:44;32.80;53.40
21355;DHT22;10835;50.148;19.760;2022-08-21T00:44:14;32.60;53.20
21355;DHT22;10835;50.148;19.760;2022-08-21T00:46:44;32.50;53.70
21355;DHT22;10835;50.148;19.760;2022-08-21T00:49:13;32.60;53.20
21355;DHT22;10835;50.148;19.760;2022-08-21T00:51:45;32.40;53.50
21355;DHT22;10835;50.148;19.760;2022-08-21T00:54:15;32.50;53.20
21355;DHT22;10835;50.148;19.760;2022-08-21T00:56:46;32.60;53.20
21355;DHT22;10835;50.148;19.760;2022-08-21T00:59:17;32.30;53.80
21355;DHT22;10835;50.148;19.760;2022-08-21T01:01:48;31.90;53.90
21355;DHT22;10835;50.148;19.760;2022-08-21T01:04:16;31.80;54.70
21355;DHT22;10835;50.148;19.760;2022-08-21T01:06:45;31.90;54.60
21355;DHT22;10835;50.148;19.760;2022-08-21T01:09:13;31.70;54.80
21355;DHT22;10835;50.148;19.760;2022-08-21T01:11:42;31.60;55.30
21355;DHT22;10835;50.148;19.760;2022-08-21T01:14:10;31.20;55.50
21355;DHT22;10835;50.148;19.760;2022-08-21T01:16:40;31.00;55.90
21355;DHT22;10835;50.148;19.760;2022-08-21T01:19:11;30.80;56.70
21355;DHT22;10835;50.148;19.760;2022-08-21T01:21:41;30.80;56.90
21355;DHT22;10835;50.148;19.760;2022-08-21T01:24:10;30.80;56.60
21355;DHT22;10835;50.148;19.760;2022-08-21T01:26:40;30.80;57.00
21355;DHT22;10835;50.148;19.760;2022-08-21T01:29:13;31.10;56.70
21355;DHT22;10835;50.148;19.760;2022-08-21T01:31:42;31.30;56.50
21355;DHT22;10835;50.148;19.760;2022-08-21T01:34:11;31.40;56.00
21355;DHT22;10835;50.148;19.760;2022-08-21T01:36:40;31.70;55.80
21355;DHT22;10835;50.148;19.760;2022-08-21T01:39:08;31.70;55.60
21355;DHT22;10835;50.148;19.760;2022-08-21T01:41:37;31.70;55.40
21355;DHT22;10835;50.148;19.760;2022-08-21T01:44:05;31.70;55.30
21355;DHT22;10835;50.148;19.760;2022-08-21T01:46:33;31.70;55.10
21355;DHT22;10835;50.148;19.760;2022-08-21T01:49:01;31.90;55.00
21355;DHT22;10835;50.148;19.760;2022-08-21T01:51:29;31.90;54.50
21355;DHT22;10835;50.148;19.760;2022-08-21T01:53:59;31.70;55.00
21355;DHT22;10835;50.148;19.760;2022-08-21T01:56:27;31.70;55.20
21355;DHT22;10835;50.148;19.760;2022-08-21T01:58:55;31.80;55.00
21355;DHT22;10835;50.148;19.760;2022-08-21T02:01:23;31.90;54.90
21355;DHT22;10835;50.148;19.760;2022-08-21T02:03:51;32.00;54.30
21355;DHT22;10835;50.148;19.760;2022-08-21T02:06:23;32.00;54.00
21355;DHT22;10835;50.148;19.760;2022-08-21T02:08:51;32.00;54.00
21355;DHT22;10835;50.148;19.760;2022-08-21T02:11:21;32.00;53.70
21355;DHT22;10835;50.148;19.760;2022-08-21T02:13:49;32.00;53.80
21355;DHT22;10835;50.148;19.760;2022-08-21T02:16:17;31.80;54.00
21355;DHT22;10835;50.148;19.760;2022-08-21T02:18:45;31.80;54.00
21355;DHT22;10835;50.148;19.760;2022-08-21T02:21:14;31.90;54.30
21355;DHT22;10835;50.148;19.760;2022-08-21T02:23:42;31.80;54.30
21355;DHT22;10835;50.148;19.760;2022-08-21T02:26:10;31.80;54.10
21355;DHT22;10835;50.148;19.760;2022-08-21T02:28:40;31.90;54.20
21355;DHT22;10835;50.148;19.760;2022-08-21T02:31:09;31.90;54.20
21355;DHT22;10835;50.148;19.760;2022-08-21T02:33:37;32.00;54.00
21355;DHT22;10835;50.148;19.760;2022-08-21T02:36:06;32.00;54.00
21355;DHT22;10835;50.148;19.760;2022-08-21T02:38:35;32.10;53.80
21355;DHT22;10835;50.148;19.760;2022-08-21T02:41:05;32.00;53.70
21355;DHT22;10835;50.148;19.760;2022-08-21T02:43:37;31.70;54.20
21355;DHT22;10835;50.148;19.760;2022-08-21T02:46:08;31.90;53.90
21355;DHT22;10835;50.148;19.760;2022-08-21T02:48:37;31.90;53.50
21355;DHT22;10835;50.148;19.760;2022-08-21T02:51:09;32.10;54.10
21355;DHT22;10835;50.148;19.760;2022-08-21T02:53:38;32.30;53.60
21355;DHT22;10835;50.148;19.760;2022-08-21T02:56:09;32.40;53.60
21355;DHT22;10835;50.148;19.760;2022-08-21T02:58:41;32.30;53.40
21355;DHT22;10835;50.148;19.760;2022-08-21T03:01:12;32.10;53.20
21355;DHT22;10835;50.148;19.760;2022-08-21T03:03:42;32.00;53.30
21355;DHT22;10835;50.148;19.760;2022-08-21T03:06:13;32.10;53.30
21355;DHT22;10835;50.148;19.760;2022-08-21T03:08:42;32.20;53.30
21355;DHT22;10835;50.148;19.760;2022-08-21T03:11:11;32.20;53.00
21355;DHT22;10835;50.148;19.760;2022-08-21T03:13:41;32.20;53.10
21355;DHT22;10835;50.148;19.760;2022-08-21T03:16:11;32.10;53.00
21355;DHT22;10835;50.148;19.760;2022-08-21T03:18:40;32.20;53.00
21355;DHT22;10835;50.148;19.760;2022-08-21T03:21:08;32.20;53.00
21355;DHT22;10835;50.148;19.760;2022-08-21T03:23:36;32.20;53.00
21355;DHT22;10835;50.148;19.760;2022-08-21T03:26:09;32.20;52.60
21355;DHT22;10835;50.148;19.760;2022-08-21T03:28:38;32.30;52.80
21355;DHT22;10835;50.148;19.760;2022-08-21T03:31:06;32.40;52.80
21355;DHT22;10835;50.148;19.760;2022-08-21T03:33:36;32.20;52.70
21355;DHT22;10835;50.148;19.760;2022-08-21T03:36:07;32.00;53.00
21355;DHT22;10835;50.148;19.760;2022-08-21T03:38:36;32.10;53.20
21355;DHT22;10835;50.148;19.760;2022-08-21T03:41:06;32.10;53.20
21355;DHT22;10835;50.148;19.760;2022-08-21T03:43:34;32.10;53.00
21355;DHT22;10835;50.148;19.760;2022-08-21T03:46:04;32.20;53.20
21355;DHT22;10835;50.148;19.760;2022-08-21T03:48:33;32.30;53.10
21355;DHT22;10835;50.148;19.760;2022-08-21T03:51:04;32.30;53.00
21355;DHT22;10835;50.148;19.760;2022-08-21T03:53:33;32.30;53.00
21355;DHT22;10835;50.148;19.760;2022-08-21T03:56:02;32.40;53.10
21355;DHT22;10835;50.148;19.760;2022-08-21T03:58:30;32.30;53.00
21355;DHT22;10835;50.148;19.760;2022-08-21T04:00:59;32.30;53.10
21355;DHT22;10835;50.148;19.760;2022-08-21T04:03:28;32.30;53.10
21355;DHT22;10835;50.148;19.760;2022-08-21T04:05:56;32.40;53.80
21355;DHT22;10835;50.148;19.760;2022-08-21T04:08:26;32.60;53.90
21355;DHT22;10835;50.148;19.760;2022-08-21T04:10:58;32.50;53.90
21355;DHT22;10835;50.148;19.760;2022-08-21T04:13:26;32.40;54.20
21355;DHT22;10835;50.148;19.760;2022-08-21T04:15:55;32.40;54.20
21355;DHT22;10835;50.148;19.760;2022-08-21T04:18:24;32.40;54.10
21355;DHT22;10835;50.148;19.760;2022-08-21T04:20:54;32.50;54.20
21355;DHT22;10835;50.148;19.760;2022-08-21T04:23:25;32.50;54.20
21355;DHT22;10835;50.148;19.760;2022-08-21T04:25:55;32.40;54.00
21355;DHT22;10835;50.148;19.760;2022-08-21T04:28:25;32.40;53.80
21355;DHT22;10835;50.148;19.760;2022-08-21T04:30:55;32.40;53.60
21355;DHT22;10835;50.148;19.760;2022-08-21T04:33:23;32.40;54.10
21355;DHT22;10835;50.148;19.760;2022-08-21T04:35:52;32.50;54.50
21355;DHT22;10835;50.148;19.760;2022-08-21T04:38:20;32.50;54.40
21355;DHT22;10835;50.148;19.760;2022-08-21T04:40:50;32.60;54.60
21355;DHT22;10835;50.148;19.760;2022-08-21T04:43:19;32.60;53.80
21355;DHT22;10835;50.148;19.760;2022-08-21T04:45:49;32.60;53.70
21355;DHT22;10835;50.148;19.760;2022-08-21T04:48:22;32.70;53.90
21355;DHT22;10835;50.148;19.760;2022-08-21T04:50:54;32.60;54.00
21355;DHT22;10835;50.148;19.760;2022-08-21T04:53:27;32.70;54.00
21355;DHT22;10835;50.148;19.760;2022-08-21T04:56:03;32.80;53.90
21355;DHT22;10835;50.148;19.760;2022-08-21T04:58:32;32.80;54.10
21355;DHT22;10835;50.148;19.760;2022-08-21T05:01:01;32.90;54.30
21355;DHT22;10835;50.148;19.760;2022-08-21T05:03:32;33.00;54.40
21355;DHT22;10835;50.148;19.760;2022-08-21T05:06:03;33.20;53.90
21355;DHT22;10835;50.148;19.760;2022-08-21T05:08:33;32.70;54.10
21355;DHT22;10835;50.148;19.760;2022-08-21T05:11:04;32.90;54.40
21355;DHT22;10835;50.148;19.760;2022-08-21T05:13:33;32.80;54.40
21355;DHT22;10835;50.148;19.760;2022-08-21T05:16:01;32.80;54.60
21355;DHT22;10835;50.148;19.760;2022-08-21T05:18:29;32.80;54.80
21355;DHT22;10835;50.148;19.760;2022-08-21T05:20:57;32.70;54.80
21355;DHT22;10835;50.148;19.760;2022-08-21T05:23:26;32.80;55.70
21355;DHT22;10835;50.148;19.760;2022-08-21T05:25:54;32.90;54.90
21355;DHT22;10835;50.148;19.760;2022-08-21T05:28:24;32.90;54.60
21355;DHT22;10835;50.148;19.760;2022-08-21T05:30:53;33.10;54.50
21355;DHT22;10835;50.148;19.760;2022-08-21T05:33:22;33.10;54.30
21355;DHT22;10835;50.148;19.760;2022-08-21T05:35:51;33.10;54.70
21355;DHT22;10835;50.148;19.760;2022-08-21T05:38:19;33.30;54.20
21355;DHT22;10835;50.148;19.760;2022-08-21T05:40:47;33.50;53.80
21355;DHT22;10835;50.148;19.760;2022-08-21T05:43:15;33.00;54.20
21355;DHT22;10835;50.148;19.760;2022-08-21T05:45:45;33.50;53.80
21355;DHT22;10835;50.148;19.760;2022-08-21T05:48:16;33.50;53.80
21355;DHT22;10835;50.148;19.760;2022-08-21T05:50:45;33.50;53.70
21355;DHT22;10835;50.148;19.760;2022-08-21T05:53:15;33.70;53.40
21355;DHT22;10835;50.148;19.760;2022-08-21T05:55:44;33.80;53.20
21355;DHT22;10835;50.148;19.760;2022-08-21T05:58:14;33.30;53.60
21355;DHT22;10835;50.148;19.760;2022-08-21T06:00:42;33.50;53.80
21355;DHT22;10835;50.148;19.760;2022-08-21T06:03:14;33.50;53.80
21355;DHT22;10835;50.148;19.760;2022-08-21T06:05:43;33.70;53.40
21355;DHT22;10835;50.148;19.760;2022-08-21T06:08:13;33.60;53.60
21355;DHT22;10835;50.148;19.760;2022-08-21T06:10:41;33.80;53.40
21355;DHT22;10835;50.148;19.760;2022-08-21T06:13:10;33.90;53.00
21355;DHT22;10835;50.148;19.760;2022-08-21T06:15:38;33.60;53.30
21355;DHT22;10835;50.148;19.760;2022-08-21T06:18:06;33.60;53.30
21355;DHT22;10835;50.148;19.760;2022-08-21T06:20:36;33.70;53.20
21355;DHT22;10835;50.148;19.760;2022-08-21T06:23:05;33.50;53.40
21355;DHT22;10835;50.148;19.760;2022-08-21T06:25:34;33.60;53.40
21355;DHT22;10835;50.148;19.760;2022-08-21T06:28:04;33.80;53.20
21355;DHT22;10835;50.148;19.760;2022-08-21T06:30:32;33.60;53.10
21355;DHT22;10835;50.148;19.760;2022-08-21T06:33:01;33.50;53.50
21355;DHT22;10835;50.148;19.760;2022-08-21T06:35:29;33.70;53.10
21355;DHT22;10835;50.148;19.760;2022-08-21T06:38:02;33.30;53.70
21355;DHT22;10835;50.148;19.760;2022-08-21T06:40:30;33.60;53.60
21355;DHT22;10835;50.148;19.760;2022-08-21T06:43:06;34.00;52.90
21355;DHT22;10835;50.148;19.760;2022-08-21T06:45:34;34.00;52.50
21355;DHT22;10835;50.148;19.760;2022-08-21T06:48:03;33.80;53.40
21355;DHT22;10835;50.148;19.760;2022-08-21T06:50:31;34.00;52.50
21355;DHT22;10835;50.148;19.760;2022-08-21T06:53:02;34.00;53.10
21355;DHT22;10835;50.148;19.760;2022-08-21T06:55:31;34.20;52.60
21355;DHT22;10835;50.148;19.760;2022-08-21T06:57:59;34.20;52.30
21355;DHT22;10835;50.148;19.760;2022-08-21T07:00:28;34.00;52.60
21355;DHT22;10835;50.148;19.760;2022-08-21T07:02:57;33.70;53.50
21355;DHT22;10835;50.148;19.760;2022-08-21T07:05:26;33.70;53.20
21355;DHT22;10835;50.148;19.760;2022-08-21T07:07:55;33.70;52.90
21355;DHT22;10835;50.148;19.760;2022-08-21T07:10:25;33.90;53.80
21355;DHT22;10835;50.148;19.760;2022-08-21T07:12:54;34.20;52.90
21355;DHT22;10835;50.148;19.760;2022-08-21T07:15:28;34.40;53.30
21355;DHT22;10835;50.148;19.760;2022-08-21T07:17:57;34.10;52.90
21355;DHT22;10835;50.148;19.760;2022-08-21T07:20:26;34.00;52.70
21355;DHT22;10835;50.148;19.760;2022-08-21T07:22:55;33.80;53.10
21355;DHT22;10835;50.148;19.760;2022-08-21T07:25:26;34.00;53.00
21355;DHT22;10835;50.148;19.760;2022-08-21T07:27:54;33.80;52.90
21355;DHT22;10835;50.148;19.760;2022-08-21T07:30:23;34.10;52.60
21355;DHT22;10835;50.148;19.760;2022-08-21T07:32:54;33.70;53.50
21355;DHT22;10835;50.148;19.760;2022-08-21T07:35:26;33.80;53.50
21355;DHT22;10835;50.148;19.760;2022-08-21T07:37:54;33.80;53.30
21355;DHT22;10835;50.148;19.760;2022-08-21T07:40:28;33.90;53.80
21355;DHT22;10835;50.148;19.760;2022-08-21T07:42:56;34.00;53.10
21355;DHT22;10835;50.148;19.760;2022-08-21T07:45:24;34.10;53.10
21355;DHT22;10835;50.148;19.760;2022-08-21T07:47:53;34.60;53.00
21355;DHT22;10835;50.148;19.760;2022-08-21T07:50:23;34.60;52.40
21355;DHT22;10835;50.148;19.760;2022-08-21T07:52:52;35.00;52.30
21355;DHT22;10835;50.148;19.760;2022-08-21T07:55:21;35.10;52.20
21355;DHT22;10835;50.148;19.760;2022-08-21T07:57:50;35.10;51.60
21355;DHT22;10835;50.148;19.760;2022-08-21T08:00:22;35.30;51.70
21355;DHT22;10835;50.148;19.760;2022-08-21T08:02:51;35.20;51.00
21355;DHT22;10835;50.148;19.760;2022-08-21T08:05:24;35.30;51.40
21355;DHT22;10835;50.148;19.760;2022-08-21T08:07:52;35.00;51.10
21355;DHT22;10835;50.148;19.760;2022-08-21T08:10:21;34.70;51.70
21355;DHT22;10835;50.148;19.760;2022-08-21T08:12:51;34.70;52.30
21355;DHT22;10835;50.148;19.760;2022-08-21T08:15:23;34.90;52.20
21355;DHT22;10835;50.148;19.760;2022-08-21T08:17:52;34.90;51.70
21355;DHT22;10835;50.148;19.760;2022-08-21T08:20:22;34.80;52.50
21355;DHT22;10835;50.148;19.760;2022-08-21T08:22:52;34.60;52.30
21355;DHT22;10835;50.148;19.760;2022-08-21T08:25:22;34.40;52.40
21355;DHT22;10835;50.148;19.760;2022-08-21T08:27:52;34.60;52.70
21355;DHT22;10835;50.148;19.760;2022-08-21T08:30:20;34.60;53.00
21355;DHT22;10835;50.148;19.760;2022-08-21T08:32:50;34.50;52.40
21355;DHT22;10835;50.148;19.760;2022-08-21T08:35:18;34.70;52.60
21355;DHT22;10835;50.148;19.760;2022-08-21T08:37:50;34.50;52.40
21355;DHT22;10835;50.148;19.760;2022-08-21T08:40:26;34.20;52.70
21355;DHT22;10835;50.148;19.760;2022-08-21T08:42:58;34.20;53.20
21355;DHT22;10835;50.148;19.760;2022-08-21T08:45:30;34.10;53.10
21355;DHT22;10835;50.148;19.760;2022-08-21T08:48:03;34.40;53.20
21355;DHT22;10835;50.148;19.760;2022-08-21T08:50:44;34.40;52.80
21355;DHT22;10835;50.148;19.760;2022-08-21T08:53:17;34.10;53.40
21355;DHT22;10835;50.148;19.760;2022-08-21T08:55:51;33.80;53.90
21355;DHT22;10835;50.148;19.760;2022-08-21T08:58:24;34.20;53.00
21355;DHT22;10835;50.148;19.760;2022-08-21T09:00:54;34.30;53.10
21355;DHT22;10835;50.148;19.760;2022-08-21T09:03:23;34.40;52.40
21355;DHT22;10835;50.148;19.760;2022-08-21T09:05:57;34.00;53.00
21355;DHT22;10835;50.148;19.760;2022-08-21T09:08:45;33.80;53.30
21355;DHT22;10835;50.148;19.760;2022-08-21T09:11:21;33.40;53.50
21355;DHT22;10835;50.148;19.760;2022-08-21T09:14:01;33.30;53.80
21355;DHT22;10835;50.148;19.760;2022-08-21T09:16:41;33.20;54.40
21355;DHT22;10835;50.148;19.760;2022-08-21T09:19:28;32.80;54.60
21355;DHT22;10835;50.148;19.760;2022-08-21T09:22:06;33.60;55.00
21355;DHT22;10835;50.148;19.760;2022-08-21T09:24:45;33.80;54.40
21355;DHT22;10835;50.148;19.760;2022-08-21T09:27:19;33.60;53.80
21355;DHT22;10835;50.148;19.760;2022-08-21T09:29:52;33.80;53.80
21355;DHT22;10835;50.148;19.760;2022-08-21T09:32:23;34.20;53.00
21355;DHT22;10835;50.148;19.760;2022-08-21T09:35:07;34.40;52.30
21355;DHT22;10835;50.148;19.760;2022-08-21T09:37:46;35.00;52.10
21355;DHT22;10835;50.148;19.760;2022-08-21T09:40:30;35.10;51.20
21355;DHT22;10835;50.148;19.760;2022-08-21T09:43:02;35.00;51.50
21355;DHT22;10835;50.148;19.760;2022-08-21T09:45:34;34.50;51.20
21355;DHT22;10835;50.148;19.760;2022-08-21T09:48:10;34.60;51.50
21355;DHT22;10835;50.148;19.760;2022-08-21T09:50:38;34.90;51.40
21355;DHT22;10835;50.148;19.760;2022-08-21T09:53:16;34.80;51.50
21355;DHT22;10835;50.148;19.760;2022-08-21T09:55:52;35.10;51.40
21355;DHT22;10835;50.148;19.760;2022-08-21T09:58:42;34.70;51.80
21355;DHT22;10835;50.148;19.760;2022-08-21T10:01:16;34.60;52.00
21355;DHT22;10835;50.148;19.760;2022-08-21T10:03:49;34.60;52.10
21355;DHT22;10835;50.148;19.760;2022-08-21T10:06:29;34.30;52.60
21355;DHT22;10835;50.148;19.760;2022-08-21T10:09:05;34.20;52.60
21355;DHT22;10835;50.148;19.760;2022-08-21T10:11:33;33.70;53.70
21355;DHT22;10835;50.148;19.760;2022-08-21T10:14:10;34.10;53.10
21355;DHT22;10835;50.148;19.760;2022-08-21T10:16:54;33.80;53.00
21355;DHT22;10835;50.148;19.760;2022-08-21T10:19:46;33.30;53.70
21355;DHT22;10835;50.148;19.760;2022-08-21T10:22:24;33.70;53.70
21355;DHT22;10835;50.148;19.760;2022-08-21T10:25:06;33.70;53.80
21355;DHT22;10835;50.148;19.760;2022-08-21T10:27:42;33.90;53.30
21355;DHT22;10835;50.148;19.760;2022-08-21T10:30:14;34.00;53.60
21355;DHT22;10835;50.148;19.760;2022-08-21T10:33:00;33.90;53.40
21355;DHT22;10835;50.148;19.760;2022-08-21T10:35:34;34.40;52.80
21355;DHT22;10835;50.148;19.760;2022-08-21T10:38:25;33.90;52.50
21355;DHT22;10835;50.148;19.760;2022-08-21T10:41:26;33.50;53.80
21355;DHT22;10835;50.148;19.760;2022-08-21T10:44:03;33.90;53.30
21355;DHT22;10835;50.148;19.760;2022-08-21T10:46:40;33.80;53.60
21355;DHT22;10835;50.148;19.760;2022-08-21T10:49:21;33.90;52.90
21355;DHT22;10835;50.148;19.760;2022-08-21T10:51:55;34.10;53.00
21355;DHT22;10835;50.148;19.760;2022-08-21T10:54:32;33.90;53.20
21355;DHT22;10835;50.148;19.760;2022-08-21T10:57:07;33.80;53.40
21355;DHT22;10835;50.148;19.760;2022-08-21T10:59:44;34.10;52.80
21355;DHT22;10835;50.148;19.760;2022-08-21T11:02:19;33.90;52.80
21355;DHT22;10835;50.148;19.760;2022-08-21T11:04:56;33.70;52.80
21355;DHT22;10835;50.148;19.760;2022-08-21T11:07:28;33.60;53.20
21355;DHT22;10835;50.148;19.760;2022-08-21T11:10:05;33.80;53.80
21355;DHT22;10835;50.148;19.760;2022-08-21T11:12:44;33.70;53.60
21355;DHT22;10835;50.148;19.760;2022-08-21T11:15:27;33.50;52.60
21355;DHT22;10835;50.148;19.760;2022-08-21T11:18:02;33.30;53.30
21355;DHT22;10835;50.148;19.760;2022-08-21T11:20:40;33.50;53.40
21355;DHT22;10835;50.148;19.760;2022-08-21T11:23:16;34.10;53.10
21355;DHT22;10835;50.148;19.760;2022-08-21T11:25:49;34.60;51.80
21355;DHT22;10835;50.148;19.760;2022-08-21T11:28:24;34.80;51.80
21355;DHT22;10835;50.148;19.760;2022-08-21T11:31:00;34.60;52.00
21355;DHT22;10835;50.148;19.760;2022-08-21T11:33:40;34.50;51.40
21355;DHT22;10835;50.148;19.760;2022-08-21T11:36:17;34.50;51.50
21355;DHT22;10835;50.148;19.760;2022-08-21T11:38:55;33.70;52.90
21355;DHT22;10835;50.148;19.760;2022-08-21T11:41:29;33.80;53.70
21355;DHT22;10835;50.148;19.760;2022-08-21T11:44:07;33.80;54.50
21355;DHT22;10835;50.148;19.760;2022-08-21T11:46:44;34.00;54.10
21355;DHT22;10835;50.148;19.760;2022-08-21T11:49:27;34.10;54.40
21355;DHT22;10835;50.148;19.760;2022-08-21T11:52:08;34.40;54.20
21355;DHT22;10835;50.148;19.760;2022-08-21T11:54:43;34.70;55.00
21355;DHT22;10835;50.148;19.760;2022-08-21T11:57:17;34.80;53.50
21355;DHT22;10835;50.148;19.760;2022-08-21T11:59:53;34.70;53.60
21355;DHT22;10835;50.148;19.760;2022-08-21T12:02:29;34.50;54.40
21355;DHT22;10835;50.148;19.760;2022-08-21T12:05:02;34.60;55.10
21355;DHT22;10835;50.148;19.760;2022-08-21T12:07:38;34.80;54.60
21355;DHT22;10835;50.148;19.760;2022-08-21T12:10:10;34.90;55.00
21355;DHT22;10835;50.148;19.760;2022-08-21T12:12:41;34.80;54.40
21355;DHT22;10835;50.148;19.760;2022-08-21T12:15:16;35.00;54.70
21355;DHT22;10835;50.148;19.760;2022-08-21T12:17:59;35.10;55.00
21355;DHT22;10835;50.148;19.760;2022-08-21T12:20:38;35.10;54.20
21355;DHT22;10835;50.148;19.760;2022-08-21T12:23:27;35.30;54.00
21355;DHT22;10835;50.148;19.760;2022-08-21T12:29:05;35.50;54.60
21355;DHT22;10835;50.148;19.760;2022-08-21T12:31:34;35.70;54.40
21355;DHT22;10835;50.148;19.760;2022-08-21T12:34:05;35.60;54.00
21355;DHT22;10835;50.148;19.760;2022-08-21T12:36:43;35.70;53.50
21355;DHT22;10835;50.148;19.760;2022-08-21T12:39:15;35.50;52.80
21355;DHT22;10835;50.148;19.760;2022-08-21T12:41:51;35.40;54.00
21355;DHT22;10835;50.148;19.760;2022-08-21T12:44:30;35.50;52.70
21355;DHT22;10835;50.148;19.760;2022-08-21T12:47:03;35.80;53.10
21355;DHT22;10835;50.148;19.760;2022-08-21T12:49:34;35.70;53.00
21355;DHT22;10835;50.148;19.760;2022-08-21T12:52:09;35.70;53.40
21355;DHT22;10835;50.148;19.760;2022-08-21T12:54:42;35.60;53.70
21355;DHT22;10835;50.148;19.760;2022-08-21T12:57:20;35.70;54.20
21355;DHT22;10835;50.148;19.760;2022-08-21T12:59:56;35.60;53.80
21355;DHT22;10835;50.148;19.760;2022-08-21T13:02:28;35.70;53.80
21355;DHT22;10835;50.148;19.760;2022-08-21T13:04:58;35.70;54.30
21355;DHT22;10835;50.148;19.760;2022-08-21T13:07:31;35.80;52.40
21355;DHT22;10835;50.148;19.760;2022-08-21T13:10:04;36.00;53.40
21355;DHT22;10835;50.148;19.760;2022-08-21T13:12:33;35.90;53.70
21355;DHT22;10835;50.148;19.760;2022-08-21T13:15:06;35.70;52.70
21355;DHT22;10835;50.148;19.760;2022-08-21T13:17:39;35.80;53.50
21355;DHT22;10835;50.148;19.760;2022-08-21T13:20:10;35.80;52.90
21355;DHT22;10835;50.148;19.760;2022-08-21T13:22:46;35.90;53.20
21355;DHT22;10835;50.148;19.760;2022-08-21T13:25:18;36.00;52.20
21355;DHT22;10835;50.148;19.760;2022-08-21T13:27:58;35.70;51.60
21355;DHT22;10835;50.148;19.760;2022-08-21T13:30:27;35.70;52.70
21355;DHT22;10835;50.148;19.760;2022-08-21T13:32:57;35.50;52.70
21355;DHT22;10835;50.148;19.760;2022-08-21T13:35:30;35.20;52.70
21355;DHT22;10835;50.148;19.760;2022-08-21T13:37:59;34.90;52.70
21355;DHT22;10835;50.148;19.760;2022-08-21T13:40:32;34.90;52.70
21355;DHT22;10835;50.148;19.760;2022-08-21T13:43:11;34.90;52.60
21355;DHT22;10835;50.148;19.760;2022-08-21T13:45:49;34.90;51.30
21355;DHT22;10835;50.148;19.760;2022-08-21T13:48:18;34.70;51.70
21355;DHT22;10835;50.148;19.760;2022-08-21T13:50:47;34.60;52.50
21355;DHT22;10835;50.148;19.760;2022-08-21T13:53:29;34.40;53.00
21355;DHT22;10835;50.148;19.760;2022-08-21T13:55:59;34.30;53.00
21355;DHT22;10835;50.148;19.760;2022-08-21T13:58:30;34.50;53.70
21355;DHT22;10835;50.148;19.760;2022-08-21T14:01:01;34.30;53.30
21355;DHT22;10835;50.148;19.760;2022-08-21T14:03:34;34.40;53.20
21355;DHT22;10835;50.148;19.760;2022-08-21T14:06:11;34.50;53.70
21355;DHT22;10835;50.148;19.760;2022-08-21T14:08:40;34.10;52.70
21355;DHT22;10835;50.148;19.760;2022-08-21T14:11:12;33.80;53.20
21355;DHT22;10835;50.148;19.760;2022-08-21T14:13:43;34.00;53.80
21355;DHT22;10835;50.148;19.760;2022-08-21T14:16:15;33.60;53.60
21355;DHT22;10835;50.148;19.760;2022-08-21T14:18:50;33.60;54.20
21355;DHT22;10835;50.148;19.760;2022-08-21T14:21:30;33.70;54.20
21355;DHT22;10835;50.148;19.760;2022-08-21T14:24:02;34.00;53.80
21355;DHT22;10835;50.148;19.760;2022-08-21T14:26:36;33.90;53.90
21355;DHT22;10835;50.148;19.760;2022-08-21T14:29:12;33.80;54.00
21355;DHT22;10835;50.148;19.760;2022-08-21T14:31:41;34.00;54.10
21355;DHT22;10835;50.148;19.760;2022-08-21T14:34:11;34.00;54.70
21355;DHT22;10835;50.148;19.760;2022-08-21T14:36:47;33.60;55.10
21355;DHT22;10835;50.148;19.760;2022-08-21T14:39:17;33.80;55.10
21355;DHT22;10835;50.148;19.760;2022-08-21T14:41:49;33.60;55.10
21355;DHT22;10835;50.148;19.760;2022-08-21T14:44:18;33.30;54.80
21355;DHT22;10835;50.148;19.760;2022-08-21T14:46:46;33.40;55.40
21355;DHT22;10835;50.148;19.760;2022-08-21T14:49:24;33.30;55.30
21355;DHT22;10835;50.148;19.760;2022-08-21T14:51:55;33.00;55.40
21355;DHT22;10835;50.148;19.760;2022-08-21T14:54:25;32.60;56.20
21355;DHT22;10835;50.148;19.760;2022-08-21T14:57:02;32.30;56.80
21355;DHT22;10835;50.148;19.760;2022-08-21T14:59:31;32.30;56.80
21355;DHT22;10835;50.148;19.760;2022-08-21T15:02:01;32.10;57.30
21355;DHT22;10835;50.148;19.760;2022-08-21T15:04:30;32.40;57.00
21355;DHT22;10835;50.148;19.760;2022-08-21T15:06:59;32.40;57.20
21355;DHT22;10835;50.148;19.760;2022-08-21T15:09:27;32.50;56.50
21355;DHT22;10835;50.148;19.760;2022-08-21T15:11:57;32.80;56.00
21355;DHT22;10835;50.148;19.760;2022-08-21T15:14:29;32.90;55.70
21355;DHT22;10835;50.148;19.760;2022-08-21T15:16:58;32.70;56.30
21355;DHT22;10835;50.148;19.760;2022-08-21T15:19:27;32.40;56.60
21355;DHT22;10835;50.148;19.760;2022-08-21T15:21:56;32.60;56.20
21355;DHT22;10835;50.148;19.760;2022-08-21T15:24:26;32.60;56.20
21355;DHT22;10835;50.148;19.760;2022-08-21T15:26:55;32.50;56.00
21355;DHT22;10835;50.148;19.760;2022-08-21T15:29:23;32.10;56.30
21355;DHT22;10835;50.148;19.760;2022-08-21T15:32:02;32.10;56.30
21355;DHT22;10835;50.148;19.760;2022-08-21T15:34:31;32.10;56.90
21355;DHT22;10835;50.148;19.760;2022-08-21T15:36:59;31.90;56.50
21355;DHT22;10835;50.148;19.760;2022-08-21T15:39:28;32.10;57.00
21355;DHT22;10835;50.148;19.760;2022-08-21T15:42:03;32.30;56.70
21355;DHT22;10835;50.148;19.760;2022-08-21T15:44:37;32.40;56.40
21355;DHT22;10835;50.148;19.760;2022-08-21T15:47:11;32.30;56.50